Map

Track Data

SID SEASON NUMBER BASIN SUBBASIN NAME ISO_TIME NATURE LAT LON WMO_WIND WMO_PRES WMO_AGENCY TRACK_TYPE DIST2LAND LANDFALL IFLAG USA_AGENCY USA_ATCF_ID USA_LAT USA_LON USA_RECORD USA_STATUS USA_WIND USA_PRES USA_SSHS USA_R34_NE USA_R34_SE USA_R34_SW USA_R34_NW USA_R50_NE USA_R50_SE USA_R50_SW USA_R50_NW USA_R64_NE USA_R64_SE USA_R64_SW USA_R64_NW USA_POCI USA_ROCI USA_RMW USA_EYE TOKYO_LAT TOKYO_LON TOKYO_GRADE TOKYO_WIND TOKYO_PRES TOKYO_R50_DIR TOKYO_R50_LONG TOKYO_R50_SHORT TOKYO_R30_DIR TOKYO_R30_LONG TOKYO_R30_SHORT TOKYO_LAND CMA_LAT CMA_LON CMA_CAT CMA_WIND CMA_PRES HKO_LAT HKO_LON HKO_CAT HKO_WIND HKO_PRES NEWDELHI_LAT NEWDELHI_LON NEWDELHI_GRADE NEWDELHI_WIND NEWDELHI_PRES NEWDELHI_CI NEWDELHI_DP NEWDELHI_POCI REUNION_LAT REUNION_LON REUNION_TYPE REUNION_WIND REUNION_PRES REUNION_TNUM REUNION_CI REUNION_RMW REUNION_R34_NE REUNION_R34_SE REUNION_R34_SW REUNION_R34_NW REUNION_R50_NE REUNION_R50_SE REUNION_R50_SW REUNION_R50_NW REUNION_R64_NE REUNION_R64_SE REUNION_R64_SW REUNION_R64_NW BOM_LAT BOM_LON BOM_TYPE BOM_WIND BOM_PRES BOM_TNUM BOM_CI BOM_RMW BOM_R34_NE BOM_R34_SE BOM_R34_SW BOM_R34_NW BOM_R50_NE BOM_R50_SE BOM_R50_SW BOM_R50_NW BOM_R64_NE BOM_R64_SE BOM_R64_SW BOM_R64_NW BOM_ROCI BOM_POCI BOM_EYE BOM_POS_METHOD BOM_PRES_METHOD NADI_LAT NADI_LON NADI_CAT NADI_WIND NADI_PRES WELLINGTON_LAT WELLINGTON_LON WELLINGTON_WIND WELLINGTON_PRES DS824_LAT DS824_LON DS824_STAGE DS824_WIND DS824_PRES TD9636_LAT TD9636_LON TD9636_STAGE TD9636_WIND TD9636_PRES TD9635_LAT TD9635_LON TD9635_WIND TD9635_PRES TD9635_ROCI NEUMANN_LAT NEUMANN_LON NEUMANN_CLASS NEUMANN_WIND NEUMANN_PRES MLC_LAT MLC_LON MLC_CLASS MLC_WIND MLC_PRES USA_GUST BOM_GUST BOM_GUST_PER REUNION_GUST REUNION_GUST_PER USA_SEAHGT USA_SEARAD_NE USA_SEARAD_SE USA_SEARAD_SW USA_SEARAD_NW STORM_SPEED STORM_DIR
1922261N29281 1922 52 NA NA NOT_NAMED 1922-09-18 00:00:00 TS 28.8000 -79.4000 30 hurdat_atl main 112 112 O_____________ hurdat_atl AL031922 28.8000 -79.4000 TD 30 -1 2 61
1922261N29281 1922 52 NA NA NOT_NAMED 1922-09-18 03:00:00 TS 28.8500 -79.2975 main 125 125 P_____________ AL031922 28.8500 -79.2975 TD 30 -1 2 60
1922261N29281 1922 52 NA NA NOT_NAMED 1922-09-18 06:00:00 TS 28.9000 -79.2000 30 hurdat_atl main 134 134 O_____________ hurdat_atl AL031922 28.9000 -79.2000 TD 30 -1 2 59
1922261N29281 1922 52 NA NA NOT_NAMED 1922-09-18 09:00:00 TS 28.9500 -79.1075 main 143 143 P_____________ AL031922 28.9500 -79.1075 TD 32 -1 2 60
1922261N29281 1922 52 NA NA NOT_NAMED 1922-09-18 12:00:00 TS 29.0000 -79.0000 35 hurdat_atl main 156 156 O_____________ hurdat_atl AL031922 29.0000 -79.0000 TS 35 0 2 66
1922261N29281 1922 52 NA NA NOT_NAMED 1922-09-18 15:00:00 TS 29.0500 -78.8500 main 169 169 P_____________ AL031922 29.0500 -78.8500 TS 35 0 3 69
1922261N29281 1922 52 NA NA NOT_NAMED 1922-09-18 18:00:00 TS 29.1000 -78.7000 35 hurdat_atl main 187 187 O_____________ hurdat_atl AL031922 29.1000 -78.7000 TS 35 0 2 65
1922261N29281 1922 52 NA NA NOT_NAMED 1922-09-18 21:00:00 TS 29.1500 -78.6000 main 196 196 P_____________ AL031922 29.1500 -78.6000 TS 37 0 2 60
1922261N29281 1922 52 NA NA NOT_NAMED 1922-09-19 00:00:00 TS 29.2000 -78.5000 40 hurdat_atl main 209 209 O_____________ hurdat_atl AL031922 29.2000 -78.5000 TS 40 0 2 67
1922261N29281 1922 52 NA NA NOT_NAMED 1922-09-19 03:00:00 TS 29.2425 -78.3500 main 227 227 P_____________ AL031922 29.2425 -78.3500 TS 40 0 3 69
1922261N29281 1922 52 NA NA NOT_NAMED 1922-09-19 06:00:00 TS 29.3000 -78.2000 40 hurdat_atl main 240 240 O_____________ hurdat_atl AL031922 29.3000 -78.2000 TS 40 0 3 56
1922261N29281 1922 52 NA NA NOT_NAMED 1922-09-19 09:00:00 TS 29.3925 -78.0925 main 253 253 P_____________ AL031922 29.3925 -78.0925 TS 42 0 3 41
1922261N29281 1922 52 NA NA NOT_NAMED 1922-09-19 12:00:00 TS 29.5000 -78.0000 45 hurdat_atl main 267 267 O_____________ hurdat_atl AL031922 29.5000 -78.0000 TS 45 0 3 39
1922261N29281 1922 52 NA NA NOT_NAMED 1922-09-19 15:00:00 TS 29.6000 -77.9000 main 280 280 P_____________ AL031922 29.6000 -77.9000 TS 47 0 3 41
1922261N29281 1922 52 NA NA NOT_NAMED 1922-09-19 18:00:00 TS 29.7000 -77.8000 50 hurdat_atl main 294 294 O_____________ hurdat_atl AL031922 29.7000 -77.8000 TS 50 0 3 41
1922261N29281 1922 52 NA NA NOT_NAMED 1922-09-19 21:00:00 TS 29.7925 -77.7074 main 307 307 P_____________ AL031922 29.7925 -77.7074 TS 52 0 3 41
1922261N29281 1922 52 NA NA NOT_NAMED 1922-09-20 00:00:00 TS 29.9000 -77.6000 55 hurdat_atl main 321 321 O_____________ hurdat_atl AL031922 29.9000 -77.6000 TS 55 0 3 41
1922261N29281 1922 52 NA NA NOT_NAMED 1922-09-20 03:00:00 TS 30.0425 -77.4575 main 335 335 P_____________ AL031922 30.0425 -77.4575 TS 57 0 4 41
1922261N29281 1922 52 NA NA NOT_NAMED 1922-09-20 06:00:00 TS 30.2000 -77.3000 60 hurdat_atl main 363 360 O_____________ hurdat_atl AL031922 30.2000 -77.3000 TS 60 0 4 39
1922261N29281 1922 52 NA NA NOT_NAMED 1922-09-20 09:00:00 TS 30.3499 -77.1649 main 365 353 P_____________ AL031922 30.3499 -77.1649 TS 62 0 4 41
1922261N29281 1922 52 NA NA NOT_NAMED 1922-09-20 12:00:00 TS 30.5000 -77.0000 65 hurdat_atl main 359 356 O_____________ hurdat_atl AL031922 30.5000 -77.0000 HU 65 1 5 50
1922261N29281 1922 52 NA NA NOT_NAMED 1922-09-20 15:00:00 TS 30.6425 -76.7649 main 363 354 P_____________ AL031922 30.6425 -76.7649 HU 67 1 5 55
1922261N29281 1922 52 NA NA NOT_NAMED 1922-09-20 18:00:00 TS 30.8000 -76.5000 70 hurdat_atl main 367 360 O_____________ hurdat_atl AL031922 30.8000 -76.5000 HU 70 1 6 52
1922261N29281 1922 52 NA NA NOT_NAMED 1922-09-20 21:00:00 TS 30.9925 -76.2500 main 364 349 P_____________ AL031922 30.9925 -76.2500 HU 70 1 6 47
1922261N29281 1922 52 NA NA NOT_NAMED 1922-09-21 00:00:00 TS 31.2000 -76.0000 70 hurdat_atl main 354 346 O_____________ hurdat_atl AL031922 31.2000 -76.0000 HU 70 1 6 46
1922261N29281 1922 52 NA NA NOT_NAMED 1922-09-21 03:00:00 TS 31.4000 -75.7499 main 352 340 P_____________ AL031922 31.4000 -75.7499 HU 70 1 6 47
1922261N29281 1922 52 NA NA NOT_NAMED 1922-09-21 06:00:00 TS 31.6000 -75.5000 70 hurdat_atl main 346 341 O_____________ hurdat_atl AL031922 31.6000 -75.5000 HU 70 1 6 46
1922261N29281 1922 52 NA NA NOT_NAMED 1922-09-21 09:00:00 TS 31.8075 -75.2500 main 345 327 P_____________ AL031922 31.8075 -75.2500 HU 70 1 6 47
1922261N29281 1922 52 NA NA NOT_NAMED 1922-09-21 12:00:00 TS 32.0000 -75.0000 70 hurdat_atl main 331 325 O_____________ hurdat_atl AL031922 32.0000 -75.0000 HU 70 1 6 50
1922261N29281 1922 52 NA NA NOT_NAMED 1922-09-21 15:00:00 TS 32.1575 -74.7499 main 324 320 P_____________ AL031922 32.1575 -74.7499 HU 70 1 5 55
1922261N29281 1922 52 NA NA NOT_NAMED 1922-09-21 18:00:00 TS 32.3000 -74.5000 70 hurdat_atl main 325 321 O_____________ hurdat_atl AL031922 32.3000 -74.5000 HU 70 1 5 56
1922261N29281 1922 52 NA NA NOT_NAMED 1922-09-21 21:00:00 TS 32.4425 -74.2499 main 333 322 P_____________ AL031922 32.4425 -74.2499 HU 70 1 5 55
1922261N29281 1922 52 NA NA NOT_NAMED 1922-09-22 00:00:00 TS 32.6000 -74.0000 70 hurdat_atl main 328 326 O_____________ hurdat_atl AL031922 32.6000 -74.0000 HU 70 1 5 51
1922261N29281 1922 52 NA NA NOT_NAMED 1922-09-22 03:00:00 TS 32.7850 -73.7499 main 334 326 P_____________ AL031922 32.7850 -73.7499 HU 70 1 6 46
1922261N29281 1922 52 NA NA NOT_NAMED 1922-09-22 06:00:00 TS 33.0000 -73.5000 70 hurdat_atl main 333 333 O_____________ hurdat_atl AL031922 33.0000 -73.5000 HU 70 1 6 43
1922261N29281 1922 52 NA NA NOT_NAMED 1922-09-22 09:00:00 TS 33.2198 -73.2719 main 334 334 P_____________ AL031922 33.2198 -73.2719 HU 70 1 7 40
1922261N29281 1922 52 NA NA NOT_NAMED 1922-09-22 12:00:00 TS 33.5000 -73.0000 70 hurdat_atl main 340 338 O_____________ hurdat_atl AL031922 33.5000 -73.0000 HU 70 1 8 40
1922261N29281 1922 52 NA NA NOT_NAMED 1922-09-22 15:00:00 TS 33.8474 -72.6369 main 345 338 P_____________ AL031922 33.8474 -72.6369 HU 67 1 10 40
1922261N29281 1922 52 NA NA NOT_NAMED 1922-09-22 18:00:00 TS 34.3000 -72.2000 65 hurdat_atl main 343 337 O_____________ hurdat_atl AL031922 34.3000 -72.2000 HU 65 1 13 36
1922261N29281 1922 52 NA NA NOT_NAMED 1922-09-22 21:00:00 TS 34.8773 -71.7299 main 358 358 P_____________ AL031922 34.8773 -71.7299 HU 62 0 15 34
1922261N29281 1922 52 NA NA NOT_NAMED 1922-09-23 00:00:00 TS 35.5000 -71.2000 60 hurdat_atl main 389 389 O_____________ hurdat_atl AL031922 35.5000 -71.2000 TS 60 0 15 38
1922261N29281 1922 52 NA NA NOT_NAMED 1922-09-23 03:00:00 TS 36.0726 -70.6000 main 441 441 P_____________ AL031922 36.0726 -70.6000 TS 57 0 15 41
1922261N29281 1922 52 NA NA NOT_NAMED 1922-09-23 06:00:00 TS 36.6000 -70.0000 55 hurdat_atl main 487 487 O_____________ hurdat_atl AL031922 36.6000 -70.0000 TS 55 0 14 42
1922261N29281 1922 52 NA NA NOT_NAMED 1922-09-23 09:00:00 TS 37.0874 -69.4547 main 490 468 P_____________ AL031922 37.0874 -69.4547 TS 52 0 12 42
1922261N29281 1922 52 NA NA NOT_NAMED 1922-09-23 12:00:00 TS 37.5000 -69.0000 50 hurdat_atl main 468 445 O_____________ hurdat_atl AL031922 37.5000 -69.0000 TS 50 0 10 41
1922261N29281 1922 52 NA NA NOT_NAMED 1922-09-23 15:00:00 TS 37.8373 -68.6395 main 449 423 P_____________ AL031922 37.8373 -68.6395 TS 47 0 8 38
1922261N29281 1922 52 NA NA NOT_NAMED 1922-09-23 18:00:00 TS 38.1000 -68.4000 45 hurdat_atl main 423 404 O_____________ hurdat_atl AL031922 38.1000 -68.4000 TS 45 0 6 29
1922261N29281 1922 52 NA NA NOT_NAMED 1922-09-23 21:00:00 TS 38.3599 -68.2622 main 394 387 P_____________ AL031922 38.3599 -68.2622 TS 42 0 4 21
1922261N29281 1922 52 NA NA NOT_NAMED 1922-09-24 00:00:00 TS 38.5000 -68.2000 40 hurdat_atl main 387 387 O_____________ hurdat_atl AL031922 38.5000 -68.2000 TS 40 0 1 80
1922261N29281 1922 52 NA NA NOT_NAMED 1922-09-24 03:00:00 TS 38.3775 -68.1423 main 401 401 P_____________ AL031922 38.3775 -68.1423 TS 37 0 2 157
1922261N29281 1922 52 NA NA NOT_NAMED 1922-09-24 06:00:00 TS 38.3000 -68.1000 35 hurdat_atl main 411 380 O_____________ hurdat_atl AL031922 38.3000 -68.1000 TS 35 0 3 19
1922261N29281 1922 52 NA NA NOT_NAMED 1922-09-24 09:00:00 TS 38.6200 -68.0427 main 384 344 P_____________ AL031922 38.6200 -68.0427 TS 35 0 7 6
1922261N29281 1922 52 NA NA NOT_NAMED 1922-09-24 12:00:00 TS 39.0000 -68.0000 35 hurdat_atl main 344 334 O_____________ hurdat_atl AL031922 39.0000 -68.0000 TS 35 0 5 4
1922261N29281 1922 52 NA NA NOT_NAMED 1922-09-24 15:00:00 TS 39.1375 -67.9924 main 334 325 P_____________ AL031922 39.1375 -67.9924 TS 35 0 2 8
1922261N29281 1922 52 NA NA NOT_NAMED 1922-09-24 18:00:00 TS 39.2000 -68.0000 35 hurdat_atl main 325 315 O_____________ hurdat_atl AL031922 39.2000 -68.0000 TS 35 0 2 0
1922261N29281 1922 52 NA NA NOT_NAMED 1922-09-24 21:00:00 TS 39.2875 -68.0025 main 315 306 P_____________ AL031922 39.2875 -68.0025 TS 32 -1 2 8
1922261N29281 1922 52 NA NA NOT_NAMED 1922-09-25 00:00:00 ET 39.4000 -68.0000 30 hurdat_atl main 306 O_____________ hurdat_atl AL031922 39.4000 -68.0000 EX 30 -4 2 0

About IBTrACS Database

This database is a web-friendly format of International Best Track Archive for Climate Stewardship (IBTrACS), a global best track data archive curated by NOAA dating back to 1842.

Updated: 2021-12-01